sensor_id;sensor_type;location;lat;lon;timestamp;P1;durP1;ratioP1;P2;durP2;ratioP2
5127;SDS011;2582;48.770;9.190;2022-11-03T00:02:05;9.20;;;5.33;;
5127;SDS011;2582;48.770;9.190;2022-11-03T00:04:31;7.63;;;4.80;;
5127;SDS011;2582;48.770;9.190;2022-11-03T00:06:56;10.93;;;5.17;;
5127;SDS011;2582;48.770;9.190;2022-11-03T00:09:22;6.40;;;4.97;;
5127;SDS011;2582;48.770;9.190;2022-11-03T00:11:50;9.10;;;4.77;;
5127;SDS011;2582;48.770;9.190;2022-11-03T00:14:16;7.73;;;4.60;;
5127;SDS011;2582;48.770;9.190;2022-11-03T00:16:42;9.63;;;5.10;;
5127;SDS011;2582;48.770;9.190;2022-11-03T00:19:09;7.40;;;5.20;;
5127;SDS011;2582;48.770;9.190;2022-11-03T00:21:36;9.63;;;4.67;;
5127;SDS011;2582;48.770;9.190;2022-11-03T00:24:02;6.17;;;4.60;;
5127;SDS011;2582;48.770;9.190;2022-11-03T00:26:29;6.67;;;4.67;;
5127;SDS011;2582;48.770;9.190;2022-11-03T00:29:00;7.70;;;4.73;;
5127;SDS011;2582;48.770;9.190;2022-11-03T00:31:34;8.33;;;5.40;;
5127;SDS011;2582;48.770;9.190;2022-11-03T00:34:01;5.93;;;5.43;;
5127;SDS011;2582;48.770;9.190;2022-11-03T00:36:32;7.10;;;5.20;;
5127;SDS011;2582;48.770;9.190;2022-11-03T00:38:59;10.40;;;5.13;;
5127;SDS011;2582;48.770;9.190;2022-11-03T00:41:25;8.50;;;5.30;;
5127;SDS011;2582;48.770;9.190;2022-11-03T00:43:51;7.43;;;5.50;;
5127;SDS011;2582;48.770;9.190;2022-11-03T00:46:17;10.23;;;5.87;;
5127;SDS011;2582;48.770;9.190;2022-11-03T00:48:44;7.83;;;6.07;;
5127;SDS011;2582;48.770;9.190;2022-11-03T00:51:13;5.60;;;5.07;;
5127;SDS011;2582;48.770;9.190;2022-11-03T00:53:46;9.60;;;6.53;;
5127;SDS011;2582;48.770;9.190;2022-11-03T00:56:16;10.17;;;5.43;;
5127;SDS011;2582;48.770;9.190;2022-11-03T00:58:49;11.13;;;6.40;;
5127;SDS011;2582;48.770;9.190;2022-11-03T01:01:19;7.03;;;5.37;;
5127;SDS011;2582;48.770;9.190;2022-11-03T01:03:48;9.37;;;6.67;;
5127;SDS011;2582;48.770;9.190;2022-11-03T01:06:34;10.47;;;6.10;;
5127;SDS011;2582;48.770;9.190;2022-11-03T01:09:39;7.87;;;6.13;;
5127;SDS011;2582;48.770;9.190;2022-11-03T01:12:08;12.43;;;6.20;;
5127;SDS011;2582;48.770;9.190;2022-11-03T01:14:45;9.83;;;5.83;;
5127;SDS011;2582;48.770;9.190;2022-11-03T01:19:39;8.00;;;6.07;;
5127;SDS011;2582;48.770;9.190;2022-11-03T01:22:06;7.67;;;5.50;;
5127;SDS011;2582;48.770;9.190;2022-11-03T01:24:33;7.23;;;5.37;;
5127;SDS011;2582;48.770;9.190;2022-11-03T01:26:59;7.43;;;6.13;;
5127;SDS011;2582;48.770;9.190;2022-11-03T01:29:24;9.50;;;6.03;;
5127;SDS011;2582;48.770;9.190;2022-11-03T01:31:50;6.90;;;6.20;;
5127;SDS011;2582;48.770;9.190;2022-11-03T01:34:16;7.80;;;5.37;;
5127;SDS011;2582;48.770;9.190;2022-11-03T01:36:43;9.90;;;6.33;;
5127;SDS011;2582;48.770;9.190;2022-11-03T01:39:12;9.03;;;5.33;;
5127;SDS011;2582;48.770;9.190;2022-11-03T01:41:40;9.73;;;6.43;;
5127;SDS011;2582;48.770;9.190;2022-11-03T01:46:33;10.80;;;7.00;;
5127;SDS011;2582;48.770;9.190;2022-11-03T01:49:06;9.17;;;6.20;;
5127;SDS011;2582;48.770;9.190;2022-11-03T01:51:35;7.57;;;6.70;;
5127;SDS011;2582;48.770;9.190;2022-11-03T01:54:04;10.30;;;6.47;;
5127;SDS011;2582;48.770;9.190;2022-11-03T01:56:32;8.60;;;6.60;;
5127;SDS011;2582;48.770;9.190;2022-11-03T01:59:02;12.87;;;6.53;;
5127;SDS011;2582;48.770;9.190;2022-11-03T02:01:28;10.43;;;6.63;;
5127;SDS011;2582;48.770;9.190;2022-11-03T02:03:56;8.43;;;5.60;;
5127;SDS011;2582;48.770;9.190;2022-11-03T02:06:26;8.03;;;5.93;;
5127;SDS011;2582;48.770;9.190;2022-11-03T02:09:03;9.10;;;6.00;;
5127;SDS011;2582;48.770;9.190;2022-11-03T02:11:31;8.60;;;4.90;;
5127;SDS011;2582;48.770;9.190;2022-11-03T02:14:16;8.80;;;6.37;;
5127;SDS011;2582;48.770;9.190;2022-11-03T02:16:43;6.83;;;6.13;;
5127;SDS011;2582;48.770;9.190;2022-11-03T02:19:45;10.73;;;6.60;;
5127;SDS011;2582;48.770;9.190;2022-11-03T02:25:15;8.77;;;6.87;;
5127;SDS011;2582;48.770;9.190;2022-11-03T02:28:00;12.43;;;7.90;;
5127;SDS011;2582;48.770;9.190;2022-11-03T02:30:28;9.57;;;6.30;;
5127;SDS011;2582;48.770;9.190;2022-11-03T02:33:04;8.17;;;6.50;;
5127;SDS011;2582;48.770;9.190;2022-11-03T02:35:41;9.40;;;6.73;;
5127;SDS011;2582;48.770;9.190;2022-11-03T02:38:13;9.30;;;6.73;;
5127;SDS011;2582;48.770;9.190;2022-11-03T02:40:42;9.43;;;6.97;;
5127;SDS011;2582;48.770;9.190;2022-11-03T02:43:11;8.60;;;6.13;;
5127;SDS011;2582;48.770;9.190;2022-11-03T02:45:39;7.83;;;6.27;;
5127;SDS011;2582;48.770;9.190;2022-11-03T02:48:06;7.90;;;5.40;;
5127;SDS011;2582;48.770;9.190;2022-11-03T02:50:33;13.17;;;7.00;;
5127;SDS011;2582;48.770;9.190;2022-11-03T02:52:59;7.70;;;5.80;;
5127;SDS011;2582;48.770;9.190;2022-11-03T02:55:36;9.33;;;6.30;;
5127;SDS011;2582;48.770;9.190;2022-11-03T02:58:15;10.40;;;5.77;;
5127;SDS011;2582;48.770;9.190;2022-11-03T03:03:24;6.23;;;5.43;;
5127;SDS011;2582;48.770;9.190;2022-11-03T03:05:55;10.57;;;5.97;;
5127;SDS011;2582;48.770;9.190;2022-11-03T03:08:25;11.97;;;6.97;;
5127;SDS011;2582;48.770;9.190;2022-11-03T03:10:52;9.83;;;7.37;;
5127;SDS011;2582;48.770;9.190;2022-11-03T03:13:20;7.30;;;5.40;;
5127;SDS011;2582;48.770;9.190;2022-11-03T03:18:45;6.10;;;5.37;;
5127;SDS011;2582;48.770;9.190;2022-11-03T03:21:33;6.00;;;5.40;;
5127;SDS011;2582;48.770;9.190;2022-11-03T03:24:06;7.43;;;5.53;;
5127;SDS011;2582;48.770;9.190;2022-11-03T03:26:43;8.93;;;6.50;;
5127;SDS011;2582;48.770;9.190;2022-11-03T03:29:17;9.30;;;6.40;;
5127;SDS011;2582;48.770;9.190;2022-11-03T03:31:50;8.23;;;5.80;;
5127;SDS011;2582;48.770;9.190;2022-11-03T03:34:20;6.27;;;4.43;;
5127;SDS011;2582;48.770;9.190;2022-11-03T03:36:48;6.57;;;5.40;;
5127;SDS011;2582;48.770;9.190;2022-11-03T03:39:15;7.57;;;4.73;;
5127;SDS011;2582;48.770;9.190;2022-11-03T03:41:44;9.37;;;5.00;;
5127;SDS011;2582;48.770;9.190;2022-11-03T03:44:12;7.70;;;5.43;;
5127;SDS011;2582;48.770;9.190;2022-11-03T03:46:43;10.30;;;5.40;;
5127;SDS011;2582;48.770;9.190;2022-11-03T03:49:13;7.97;;;5.87;;
5127;SDS011;2582;48.770;9.190;2022-11-03T03:51:39;9.30;;;5.57;;
5127;SDS011;2582;48.770;9.190;2022-11-03T03:54:05;7.93;;;5.00;;
5127;SDS011;2582;48.770;9.190;2022-11-03T03:59:03;6.63;;;5.30;;
5127;SDS011;2582;48.770;9.190;2022-11-03T04:01:28;10.20;;;4.90;;
5127;SDS011;2582;48.770;9.190;2022-11-03T04:03:54;11.10;;;5.70;;
5127;SDS011;2582;48.770;9.190;2022-11-03T04:06:19;6.87;;;6.00;;
5127;SDS011;2582;48.770;9.190;2022-11-03T04:08:45;6.07;;;5.10;;
5127;SDS011;2582;48.770;9.190;2022-11-03T04:11:11;9.80;;;5.77;;
5127;SDS011;2582;48.770;9.190;2022-11-03T04:13:55;6.90;;;4.87;;
5127;SDS011;2582;48.770;9.190;2022-11-03T04:16:39;9.43;;;5.30;;
5127;SDS011;2582;48.770;9.190;2022-11-03T04:19:23;9.27;;;5.50;;
5127;SDS011;2582;48.770;9.190;2022-11-03T04:22:07;6.30;;;4.70;;
5127;SDS011;2582;48.770;9.190;2022-11-03T04:24:48;6.10;;;5.07;;
5127;SDS011;2582;48.770;9.190;2022-11-03T04:30:01;10.03;;;4.83;;
5127;SDS011;2582;48.770;9.190;2022-11-03T04:32:30;9.03;;;5.43;;
5127;SDS011;2582;48.770;9.190;2022-11-03T04:34:55;7.10;;;4.60;;
5127;SDS011;2582;48.770;9.190;2022-11-03T04:37:24;7.73;;;4.90;;
5127;SDS011;2582;48.770;9.190;2022-11-03T04:39:54;11.07;;;5.40;;
5127;SDS011;2582;48.770;9.190;2022-11-03T04:42:23;9.70;;;5.10;;
5127;SDS011;2582;48.770;9.190;2022-11-03T04:44:48;6.70;;;5.03;;
5127;SDS011;2582;48.770;9.190;2022-11-03T04:47:15;7.60;;;5.03;;
5127;SDS011;2582;48.770;9.190;2022-11-03T04:49:42;8.07;;;5.00;;
5127;SDS011;2582;48.770;9.190;2022-11-03T04:52:13;9.43;;;5.60;;
5127;SDS011;2582;48.770;9.190;2022-11-03T04:54:40;11.17;;;6.10;;
5127;SDS011;2582;48.770;9.190;2022-11-03T04:57:10;11.53;;;7.87;;
5127;SDS011;2582;48.770;9.190;2022-11-03T04:59:38;23.23;;;20.50;;
5127;SDS011;2582;48.770;9.190;2022-11-03T05:02:07;27.10;;;23.47;;
5127;SDS011;2582;48.770;9.190;2022-11-03T05:04:36;24.50;;;22.10;;
5127;SDS011;2582;48.770;9.190;2022-11-03T05:07:04;13.93;;;12.63;;
5127;SDS011;2582;48.770;9.190;2022-11-03T05:09:47;10.30;;;8.87;;
5127;SDS011;2582;48.770;9.190;2022-11-03T05:12:13;8.20;;;6.97;;
5127;SDS011;2582;48.770;9.190;2022-11-03T05:14:39;6.70;;;6.00;;
5127;SDS011;2582;48.770;9.190;2022-11-03T05:17:21;10.47;;;9.37;;
5127;SDS011;2582;48.770;9.190;2022-11-03T05:19:50;15.43;;;13.83;;
5127;SDS011;2582;48.770;9.190;2022-11-03T05:22:28;11.27;;;10.17;;
5127;SDS011;2582;48.770;9.190;2022-11-03T05:24:59;12.50;;;9.27;;
5127;SDS011;2582;48.770;9.190;2022-11-03T05:27:34;11.93;;;7.07;;
5127;SDS011;2582;48.770;9.190;2022-11-03T05:30:00;10.93;;;6.90;;
5127;SDS011;2582;48.770;9.190;2022-11-03T05:32:29;9.90;;;6.83;;
5127;SDS011;2582;48.770;9.190;2022-11-03T05:34:57;8.37;;;6.13;;
5127;SDS011;2582;48.770;9.190;2022-11-03T05:37:23;8.50;;;6.93;;
5127;SDS011;2582;48.770;9.190;2022-11-03T05:39:51;9.80;;;7.70;;
5127;SDS011;2582;48.770;9.190;2022-11-03T05:42:24;7.00;;;6.30;;
5127;SDS011;2582;48.770;9.190;2022-11-03T05:45:03;8.30;;;6.40;;
5127;SDS011;2582;48.770;9.190;2022-11-03T05:47:53;13.43;;;6.03;;
5127;SDS011;2582;48.770;9.190;2022-11-03T05:50:26;8.87;;;6.67;;
5127;SDS011;2582;48.770;9.190;2022-11-03T05:52:54;13.90;;;6.20;;
5127;SDS011;2582;48.770;9.190;2022-11-03T05:55:31;8.27;;;7.50;;
5127;SDS011;2582;48.770;9.190;2022-11-03T05:58:01;7.50;;;6.70;;
5127;SDS011;2582;48.770;9.190;2022-11-03T06:00:36;6.63;;;5.60;;
5127;SDS011;2582;48.770;9.190;2022-11-03T06:03:05;8.23;;;6.27;;
5127;SDS011;2582;48.770;9.190;2022-11-03T06:05:31;10.93;;;6.33;;
5127;SDS011;2582;48.770;9.190;2022-11-03T06:08:19;8.43;;;6.27;;
5127;SDS011;2582;48.770;9.190;2022-11-03T06:10:47;9.93;;;6.60;;
5127;SDS011;2582;48.770;9.190;2022-11-03T06:15:50;7.57;;;6.67;;
5127;SDS011;2582;48.770;9.190;2022-11-03T06:18:22;8.60;;;6.30;;
5127;SDS011;2582;48.770;9.190;2022-11-03T06:20:52;9.17;;;5.67;;
5127;SDS011;2582;48.770;9.190;2022-11-03T06:23:20;8.70;;;7.00;;
5127;SDS011;2582;48.770;9.190;2022-11-03T06:25:47;8.67;;;5.90;;
5127;SDS011;2582;48.770;9.190;2022-11-03T06:28:15;8.03;;;5.77;;
5127;SDS011;2582;48.770;9.190;2022-11-03T06:30:44;7.77;;;6.13;;
5127;SDS011;2582;48.770;9.190;2022-11-03T06:33:24;7.47;;;5.90;;
5127;SDS011;2582;48.770;9.190;2022-11-03T06:35:53;7.97;;;6.47;;
5127;SDS011;2582;48.770;9.190;2022-11-03T06:38:24;12.97;;;8.37;;
5127;SDS011;2582;48.770;9.190;2022-11-03T06:40:53;9.90;;;6.93;;
5127;SDS011;2582;48.770;9.190;2022-11-03T06:43:23;8.23;;;6.90;;
5127;SDS011;2582;48.770;9.190;2022-11-03T06:45:56;10.97;;;7.20;;
5127;SDS011;2582;48.770;9.190;2022-11-03T06:48:26;8.73;;;7.83;;
5127;SDS011;2582;48.770;9.190;2022-11-03T06:50:53;9.93;;;7.53;;
5127;SDS011;2582;48.770;9.190;2022-11-03T06:53:22;9.17;;;6.90;;
5127;SDS011;2582;48.770;9.190;2022-11-03T06:55:50;7.03;;;6.37;;
5127;SDS011;2582;48.770;9.190;2022-11-03T06:58:27;15.57;;;10.50;;
5127;SDS011;2582;48.770;9.190;2022-11-03T07:00:56;9.93;;;7.43;;
5127;SDS011;2582;48.770;9.190;2022-11-03T07:06:12;13.70;;;10.87;;
5127;SDS011;2582;48.770;9.190;2022-11-03T07:08:43;12.53;;;10.27;;
5127;SDS011;2582;48.770;9.190;2022-11-03T07:11:14;10.67;;;7.97;;
5127;SDS011;2582;48.770;9.190;2022-11-03T07:13:47;8.70;;;7.77;;
5127;SDS011;2582;48.770;9.190;2022-11-03T07:16:23;9.50;;;7.93;;
5127;SDS011;2582;48.770;9.190;2022-11-03T07:19:03;9.10;;;7.30;;
5127;SDS011;2582;48.770;9.190;2022-11-03T07:24:13;8.07;;;6.37;;
5127;SDS011;2582;48.770;9.190;2022-11-03T07:26:42;10.07;;;7.90;;
5127;SDS011;2582;48.770;9.190;2022-11-03T07:29:12;10.63;;;7.93;;
5127;SDS011;2582;48.770;9.190;2022-11-03T07:31:46;10.17;;;6.53;;
5127;SDS011;2582;48.770;9.190;2022-11-03T07:34:13;14.23;;;6.80;;
5127;SDS011;2582;48.770;9.190;2022-11-03T07:36:42;7.93;;;6.40;;
5127;SDS011;2582;48.770;9.190;2022-11-03T07:39:10;8.90;;;7.20;;
5127;SDS011;2582;48.770;9.190;2022-11-03T07:41:40;8.50;;;6.33;;
5127;SDS011;2582;48.770;9.190;2022-11-03T07:44:12;12.10;;;7.63;;
5127;SDS011;2582;48.770;9.190;2022-11-03T07:46:41;14.87;;;8.70;;
5127;SDS011;2582;48.770;9.190;2022-11-03T07:49:09;9.47;;;7.10;;
5127;SDS011;2582;48.770;9.190;2022-11-03T07:51:54;10.70;;;7.70;;
5127;SDS011;2582;48.770;9.190;2022-11-03T07:54:22;11.37;;;7.17;;
5127;SDS011;2582;48.770;9.190;2022-11-03T07:57:50;13.27;;;7.37;;
5127;SDS011;2582;48.770;9.190;2022-11-03T07:59:48;11.00;;;7.03;;
5127;SDS011;2582;48.770;9.190;2022-11-03T08:02:29;7.63;;;6.93;;
5127;SDS011;2582;48.770;9.190;2022-11-03T08:04:56;12.63;;;7.53;;
5127;SDS011;2582;48.770;9.190;2022-11-03T08:07:22;13.90;;;8.30;;
5127;SDS011;2582;48.770;9.190;2022-11-03T08:09:48;12.77;;;8.90;;
5127;SDS011;2582;48.770;9.190;2022-11-03T08:12:14;8.60;;;7.60;;
5127;SDS011;2582;48.770;9.190;2022-11-03T08:14:40;10.83;;;8.30;;
5127;SDS011;2582;48.770;9.190;2022-11-03T08:17:05;10.20;;;8.33;;
5127;SDS011;2582;48.770;9.190;2022-11-03T08:19:31;12.83;;;9.17;;
5127;SDS011;2582;48.770;9.190;2022-11-03T08:21:57;9.73;;;7.37;;
5127;SDS011;2582;48.770;9.190;2022-11-03T08:24:22;10.90;;;7.50;;
5127;SDS011;2582;48.770;9.190;2022-11-03T08:26:48;11.80;;;8.70;;
5127;SDS011;2582;48.770;9.190;2022-11-03T08:29:15;14.27;;;8.63;;
5127;SDS011;2582;48.770;9.190;2022-11-03T08:31:43;13.43;;;8.27;;
5127;SDS011;2582;48.770;9.190;2022-11-03T08:34:09;9.87;;;7.23;;
5127;SDS011;2582;48.770;9.190;2022-11-03T08:36:35;10.60;;;7.37;;
5127;SDS011;2582;48.770;9.190;2022-11-03T08:39:01;8.30;;;7.17;;
5127;SDS011;2582;48.770;9.190;2022-11-03T08:41:27;10.17;;;7.37;;
5127;SDS011;2582;48.770;9.190;2022-11-03T08:43:52;11.37;;;8.03;;
5127;SDS011;2582;48.770;9.190;2022-11-03T08:46:18;9.27;;;7.60;;
5127;SDS011;2582;48.770;9.190;2022-11-03T08:48:44;9.70;;;7.20;;
5127;SDS011;2582;48.770;9.190;2022-11-03T08:51:10;12.27;;;8.00;;
5127;SDS011;2582;48.770;9.190;2022-11-03T08:53:37;11.37;;;8.20;;
5127;SDS011;2582;48.770;9.190;2022-11-03T08:56:03;9.40;;;7.60;;
5127;SDS011;2582;48.770;9.190;2022-11-03T08:58:29;9.80;;;8.10;;
5127;SDS011;2582;48.770;9.190;2022-11-03T09:00:55;12.63;;;8.60;;
5127;SDS011;2582;48.770;9.190;2022-11-03T09:03:21;10.20;;;7.83;;
5127;SDS011;2582;48.770;9.190;2022-11-03T09:05:47;10.60;;;8.17;;
5127;SDS011;2582;48.770;9.190;2022-11-03T09:08:13;11.00;;;7.53;;
5127;SDS011;2582;48.770;9.190;2022-11-03T09:10:38;11.17;;;8.30;;
5127;SDS011;2582;48.770;9.190;2022-11-03T09:13:04;10.30;;;7.10;;
5127;SDS011;2582;48.770;9.190;2022-11-03T09:15:30;8.17;;;6.73;;
5127;SDS011;2582;48.770;9.190;2022-11-03T09:17:55;7.73;;;6.90;;
5127;SDS011;2582;48.770;9.190;2022-11-03T09:20:21;8.80;;;6.00;;
5127;SDS011;2582;48.770;9.190;2022-11-03T09:22:47;6.23;;;5.63;;
5127;SDS011;2582;48.770;9.190;2022-11-03T09:25:12;8.80;;;6.03;;
5127;SDS011;2582;48.770;9.190;2022-11-03T09:27:38;9.57;;;6.50;;
5127;SDS011;2582;48.770;9.190;2022-11-03T09:30:04;7.20;;;5.67;;
5127;SDS011;2582;48.770;9.190;2022-11-03T09:32:30;8.13;;;5.73;;
5127;SDS011;2582;48.770;9.190;2022-11-03T09:34:56;7.67;;;3.57;;
5127;SDS011;2582;48.770;9.190;2022-11-03T09:37:21;4.20;;;3.70;;
5127;SDS011;2582;48.770;9.190;2022-11-03T09:39:47;7.20;;;3.90;;
5127;SDS011;2582;48.770;9.190;2022-11-03T09:42:13;4.27;;;3.30;;
5127;SDS011;2582;48.770;9.190;2022-11-03T09:44:40;4.73;;;3.30;;
5127;SDS011;2582;48.770;9.190;2022-11-03T09:47:06;6.20;;;3.60;;
5127;SDS011;2582;48.770;9.190;2022-11-03T09:49:43;4.90;;;3.13;;
5127;SDS011;2582;48.770;9.190;2022-11-03T09:52:09;7.00;;;3.40;;
5127;SDS011;2582;48.770;9.190;2022-11-03T09:54:39;4.17;;;3.40;;
5127;SDS011;2582;48.770;9.190;2022-11-03T09:57:08;4.93;;;3.37;;
5127;SDS011;2582;48.770;9.190;2022-11-03T09:59:36;3.97;;;2.90;;
5127;SDS011;2582;48.770;9.190;2022-11-03T10:02:04;2.57;;;2.33;;
5127;SDS011;2582;48.770;9.190;2022-11-03T10:04:46;6.27;;;3.00;;
5127;SDS011;2582;48.770;9.190;2022-11-03T10:07:11;4.50;;;2.87;;
5127;SDS011;2582;48.770;9.190;2022-11-03T10:09:37;5.80;;;2.60;;
5127;SDS011;2582;48.770;9.190;2022-11-03T10:12:08;4.67;;;3.30;;
5127;SDS011;2582;48.770;9.190;2022-11-03T10:14:34;6.93;;;3.10;;
5127;SDS011;2582;48.770;9.190;2022-11-03T10:17:00;5.93;;;2.77;;
5127;SDS011;2582;48.770;9.190;2022-11-03T10:19:25;5.10;;;2.70;;
5127;SDS011;2582;48.770;9.190;2022-11-03T10:21:51;3.50;;;2.40;;
5127;SDS011;2582;48.770;9.190;2022-11-03T10:24:17;3.83;;;2.60;;
5127;SDS011;2582;48.770;9.190;2022-11-03T10:26:46;5.07;;;3.13;;
5127;SDS011;2582;48.770;9.190;2022-11-03T10:29:17;6.17;;;3.57;;
5127;SDS011;2582;48.770;9.190;2022-11-03T10:31:46;3.90;;;2.83;;
5127;SDS011;2582;48.770;9.190;2022-11-03T10:37:17;3.80;;;2.60;;
5127;SDS011;2582;48.770;9.190;2022-11-03T10:39:47;8.13;;;3.70;;
5127;SDS011;2582;48.770;9.190;2022-11-03T10:42:16;8.80;;;3.73;;
5127;SDS011;2582;48.770;9.190;2022-11-03T10:44:46;9.07;;;3.50;;
5127;SDS011;2582;48.770;9.190;2022-11-03T10:50:25;4.50;;;3.10;;
5127;SDS011;2582;48.770;9.190;2022-11-03T10:52:51;5.23;;;3.10;;
5127;SDS011;2582;48.770;9.190;2022-11-03T10:55:19;5.80;;;2.57;;
5127;SDS011;2582;48.770;9.190;2022-11-03T10:57:45;5.00;;;2.80;;
5127;SDS011;2582;48.770;9.190;2022-11-03T11:00:12;4.07;;;3.00;;
5127;SDS011;2582;48.770;9.190;2022-11-03T11:02:40;9.20;;;2.90;;
5127;SDS011;2582;48.770;9.190;2022-11-03T11:05:14;5.73;;;2.50;;
5127;SDS011;2582;48.770;9.190;2022-11-03T11:07:48;5.83;;;3.37;;
5127;SDS011;2582;48.770;9.190;2022-11-03T11:10:24;7.20;;;3.00;;
5127;SDS011;2582;48.770;9.190;2022-11-03T11:20:51;5.00;;;2.90;;
5127;SDS011;2582;48.770;9.190;2022-11-03T11:28:33;5.50;;;3.20;;
5127;SDS011;2582;48.770;9.190;2022-11-03T11:30:59;4.17;;;2.40;;
5127;SDS011;2582;48.770;9.190;2022-11-03T11:33:29;3.70;;;2.70;;
5127;SDS011;2582;48.770;9.190;2022-11-03T11:41:21;3.33;;;2.50;;
5127;SDS011;2582;48.770;9.190;2022-11-03T11:47:53;3.70;;;2.83;;
5127;SDS011;2582;48.770;9.190;2022-11-03T11:50:11;2.90;;;2.50;;
5127;SDS011;2582;48.770;9.190;2022-11-03T11:55:50;6.57;;;2.77;;
5127;SDS011;2582;48.770;9.190;2022-11-03T12:03:47;4.30;;;2.70;;
5127;SDS011;2582;48.770;9.190;2022-11-03T12:06:14;6.03;;;3.00;;
5127;SDS011;2582;48.770;9.190;2022-11-03T12:08:40;6.10;;;3.30;;
5127;SDS011;2582;48.770;9.190;2022-11-03T12:11:08;5.93;;;3.50;;
5127;SDS011;2582;48.770;9.190;2022-11-03T12:16:09;3.93;;;3.43;;
5127;SDS011;2582;48.770;9.190;2022-11-03T12:18:51;6.17;;;4.23;;
5127;SDS011;2582;48.770;9.190;2022-11-03T12:22:03;5.13;;;3.40;;
5127;SDS011;2582;48.770;9.190;2022-11-03T12:27:00;7.33;;;4.20;;
5127;SDS011;2582;48.770;9.190;2022-11-03T12:29:27;8.03;;;4.50;;
5127;SDS011;2582;48.770;9.190;2022-11-03T12:31:53;7.27;;;3.60;;
5127;SDS011;2582;48.770;9.190;2022-11-03T12:34:19;5.63;;;3.20;;
5127;SDS011;2582;48.770;9.190;2022-11-03T12:36:45;6.03;;;4.10;;
5127;SDS011;2582;48.770;9.190;2022-11-03T12:39:11;10.00;;;4.50;;
5127;SDS011;2582;48.770;9.190;2022-11-03T12:41:37;6.87;;;4.80;;
5127;SDS011;2582;48.770;9.190;2022-11-03T12:44:03;4.40;;;3.97;;
5127;SDS011;2582;48.770;9.190;2022-11-03T12:46:28;4.90;;;4.20;;
5127;SDS011;2582;48.770;9.190;2022-11-03T12:48:54;6.80;;;4.70;;
5127;SDS011;2582;48.770;9.190;2022-11-03T12:51:20;6.33;;;4.30;;
5127;SDS011;2582;48.770;9.190;2022-11-03T12:53:47;6.37;;;3.93;;
5127;SDS011;2582;48.770;9.190;2022-11-03T12:56:14;7.67;;;4.10;;
5127;SDS011;2582;48.770;9.190;2022-11-03T12:58:40;5.50;;;4.33;;
5127;SDS011;2582;48.770;9.190;2022-11-03T13:01:06;6.87;;;4.20;;
5127;SDS011;2582;48.770;9.190;2022-11-03T13:03:33;4.20;;;3.80;;
5127;SDS011;2582;48.770;9.190;2022-11-03T13:06:00;6.63;;;4.33;;
5127;SDS011;2582;48.770;9.190;2022-11-03T13:08:28;5.93;;;3.87;;
5127;SDS011;2582;48.770;9.190;2022-11-03T13:10:55;6.87;;;5.13;;
5127;SDS011;2582;48.770;9.190;2022-11-03T13:13:20;5.90;;;4.93;;
5127;SDS011;2582;48.770;9.190;2022-11-03T13:15:46;11.10;;;5.10;;
5127;SDS011;2582;48.770;9.190;2022-11-03T13:18:12;6.43;;;5.13;;
5127;SDS011;2582;48.770;9.190;2022-11-03T13:20:37;6.83;;;4.90;;
5127;SDS011;2582;48.770;9.190;2022-11-03T13:23:03;4.97;;;4.17;;
5127;SDS011;2582;48.770;9.190;2022-11-03T13:25:29;4.47;;;4.07;;
5127;SDS011;2582;48.770;9.190;2022-11-03T13:27:55;4.93;;;4.40;;
5127;SDS011;2582;48.770;9.190;2022-11-03T13:30:25;8.53;;;4.23;;
5127;SDS011;2582;48.770;9.190;2022-11-03T13:32:51;5.27;;;4.30;;
5127;SDS011;2582;48.770;9.190;2022-11-03T13:35:17;5.40;;;3.50;;
5127;SDS011;2582;48.770;9.190;2022-11-03T13:37:43;6.37;;;4.30;;
5127;SDS011;2582;48.770;9.190;2022-11-03T13:40:09;7.03;;;4.90;;
5127;SDS011;2582;48.770;9.190;2022-11-03T13:42:36;8.37;;;6.00;;
5127;SDS011;2582;48.770;9.190;2022-11-03T13:45:02;8.37;;;5.10;;
5127;SDS011;2582;48.770;9.190;2022-11-03T13:47:28;17.80;;;5.50;;
5127;SDS011;2582;48.770;9.190;2022-11-03T13:49:54;9.13;;;6.20;;
5127;SDS011;2582;48.770;9.190;2022-11-03T13:52:20;9.83;;;4.90;;
5127;SDS011;2582;48.770;9.190;2022-11-03T13:54:46;12.23;;;5.47;;
5127;SDS011;2582;48.770;9.190;2022-11-03T13:57:12;9.60;;;5.10;;
5127;SDS011;2582;48.770;9.190;2022-11-03T13:59:38;6.20;;;5.13;;
5127;SDS011;2582;48.770;9.190;2022-11-03T14:02:04;8.70;;;5.53;;
5127;SDS011;2582;48.770;9.190;2022-11-03T14:04:30;8.20;;;5.47;;
5127;SDS011;2582;48.770;9.190;2022-11-03T14:06:56;7.73;;;5.53;;
5127;SDS011;2582;48.770;9.190;2022-11-03T14:09:22;7.43;;;5.13;;
5127;SDS011;2582;48.770;9.190;2022-11-03T14:11:48;6.70;;;5.53;;
5127;SDS011;2582;48.770;9.190;2022-11-03T14:14:32;9.43;;;6.87;;
5127;SDS011;2582;48.770;9.190;2022-11-03T14:16:57;11.47;;;7.30;;
5127;SDS011;2582;48.770;9.190;2022-11-03T14:19:23;7.77;;;5.27;;
5127;SDS011;2582;48.770;9.190;2022-11-03T14:21:49;7.37;;;5.70;;
5127;SDS011;2582;48.770;9.190;2022-11-03T14:24:15;9.37;;;6.00;;
5127;SDS011;2582;48.770;9.190;2022-11-03T14:26:40;9.83;;;5.37;;
5127;SDS011;2582;48.770;9.190;2022-11-03T14:29:06;8.20;;;4.87;;
5127;SDS011;2582;48.770;9.190;2022-11-03T14:31:32;6.90;;;4.60;;
5127;SDS011;2582;48.770;9.190;2022-11-03T14:33:58;8.33;;;5.17;;
5127;SDS011;2582;48.770;9.190;2022-11-03T14:36:23;9.13;;;5.13;;
5127;SDS011;2582;48.770;9.190;2022-11-03T14:38:49;6.00;;;4.83;;
5127;SDS011;2582;48.770;9.190;2022-11-03T14:41:15;5.60;;;4.77;;
5127;SDS011;2582;48.770;9.190;2022-11-03T14:43:59;6.03;;;4.27;;
5127;SDS011;2582;48.770;9.190;2022-11-03T14:46:26;12.83;;;7.37;;
5127;SDS011;2582;48.770;9.190;2022-11-03T14:48:51;6.07;;;5.13;;
5127;SDS011;2582;48.770;9.190;2022-11-03T14:51:18;12.40;;;6.07;;
5127;SDS011;2582;48.770;9.190;2022-11-03T14:53:44;18.23;;;6.40;;
5127;SDS011;2582;48.770;9.190;2022-11-03T14:56:09;8.27;;;4.73;;
5127;SDS011;2582;48.770;9.190;2022-11-03T14:58:35;7.83;;;5.50;;
5127;SDS011;2582;48.770;9.190;2022-11-03T15:01:01;5.20;;;4.30;;
5127;SDS011;2582;48.770;9.190;2022-11-03T15:03:27;8.70;;;4.27;;
5127;SDS011;2582;48.770;9.190;2022-11-03T15:05:52;8.50;;;5.27;;
5127;SDS011;2582;48.770;9.190;2022-11-03T15:08:20;5.60;;;4.93;;
5127;SDS011;2582;48.770;9.190;2022-11-03T15:10:47;10.10;;;4.90;;
5127;SDS011;2582;48.770;9.190;2022-11-03T15:13:13;4.53;;;4.10;;
5127;SDS011;2582;48.770;9.190;2022-11-03T15:15:39;5.30;;;4.60;;
5127;SDS011;2582;48.770;9.190;2022-11-03T15:18:05;5.77;;;4.30;;
5127;SDS011;2582;48.770;9.190;2022-11-03T15:20:31;5.33;;;4.83;;
5127;SDS011;2582;48.770;9.190;2022-11-03T15:23:03;6.67;;;4.90;;
5127;SDS011;2582;48.770;9.190;2022-11-03T15:25:30;5.10;;;4.60;;
5127;SDS011;2582;48.770;9.190;2022-11-03T15:27:56;6.53;;;4.73;;
5127;SDS011;2582;48.770;9.190;2022-11-03T15:30:22;7.20;;;4.77;;
5127;SDS011;2582;48.770;9.190;2022-11-03T15:32:47;6.43;;;4.23;;
5127;SDS011;2582;48.770;9.190;2022-11-03T15:35:13;8.10;;;5.30;;
5127;SDS011;2582;48.770;9.190;2022-11-03T15:37:39;5.70;;;5.17;;
5127;SDS011;2582;48.770;9.190;2022-11-03T15:40:06;10.90;;;6.43;;
5127;SDS011;2582;48.770;9.190;2022-11-03T15:42:33;8.23;;;6.23;;
5127;SDS011;2582;48.770;9.190;2022-11-03T15:44:59;7.93;;;5.87;;
5127;SDS011;2582;48.770;9.190;2022-11-03T15:47:24;5.10;;;4.60;;
5127;SDS011;2582;48.770;9.190;2022-11-03T15:49:50;8.60;;;5.30;;
5127;SDS011;2582;48.770;9.190;2022-11-03T15:52:16;5.93;;;5.07;;
5127;SDS011;2582;48.770;9.190;2022-11-03T15:54:41;9.67;;;5.77;;
5127;SDS011;2582;48.770;9.190;2022-11-03T15:57:07;6.03;;;5.20;;
5127;SDS011;2582;48.770;9.190;2022-11-03T15:59:32;6.93;;;5.63;;
5127;SDS011;2582;48.770;9.190;2022-11-03T16:01:58;5.93;;;5.33;;
5127;SDS011;2582;48.770;9.190;2022-11-03T16:04:23;6.00;;;5.10;;
5127;SDS011;2582;48.770;9.190;2022-11-03T16:06:49;11.30;;;6.87;;
5127;SDS011;2582;48.770;9.190;2022-11-03T16:09:14;5.57;;;5.07;;
5127;SDS011;2582;48.770;9.190;2022-11-03T16:11:40;7.00;;;5.23;;
5127;SDS011;2582;48.770;9.190;2022-11-03T16:14:05;7.87;;;4.80;;
5127;SDS011;2582;48.770;9.190;2022-11-03T16:16:31;6.37;;;5.40;;
5127;SDS011;2582;48.770;9.190;2022-11-03T16:18:57;8.43;;;6.20;;
5127;SDS011;2582;48.770;9.190;2022-11-03T16:21:22;6.60;;;5.33;;
5127;SDS011;2582;48.770;9.190;2022-11-03T16:23:48;6.73;;;5.00;;
5127;SDS011;2582;48.770;9.190;2022-11-03T16:26:14;5.70;;;4.57;;
5127;SDS011;2582;48.770;9.190;2022-11-03T16:28:39;8.00;;;5.37;;
5127;SDS011;2582;48.770;9.190;2022-11-03T16:31:05;6.03;;;5.43;;
5127;SDS011;2582;48.770;9.190;2022-11-03T16:33:30;9.83;;;5.90;;